sensor_id;sensor_type;location;lat;lon;timestamp;pressure;altitude;pressure_sealevel;temperature;humidity
36062;BME280;22123;52.412;20.970;2023-04-02T00:01:15;99738.34;;;6.42;100.00
36062;BME280;22123;52.412;20.970;2023-04-02T00:08:56;99710.69;;;6.17;100.00
36062;BME280;22123;52.412;20.970;2023-04-02T00:11:35;99735.31;;;6.29;100.00
36062;BME280;22123;52.412;20.970;2023-04-02T00:14:12;99703.00;;;6.05;100.00
36062;BME280;22123;52.412;20.970;2023-04-02T00:16:40;99673.50;;;5.89;100.00
36062;BME280;22123;52.412;20.970;2023-04-02T00:19:10;99758.38;;;6.38;100.00
36062;BME280;22123;52.412;20.970;2023-04-02T00:21:38;99661.75;;;5.73;100.00
36062;BME280;22123;52.412;20.970;2023-04-02T00:24:14;99756.72;;;6.37;100.00
36062;BME280;22123;52.412;20.970;2023-04-02T00:26:45;99755.06;;;6.36;100.00
36062;BME280;22123;52.412;20.970;2023-04-02T00:29:13;99751.00;;;6.23;100.00
36062;BME280;22123;52.412;20.970;2023-04-02T00:31:42;99720.50;;;6.00;100.00
36062;BME280;22123;52.412;20.970;2023-04-02T00:34:16;99731.69;;;6.03;100.00
36062;BME280;22123;52.412;20.970;2023-04-02T00:36:43;99737.22;;;6.02;100.00
36062;BME280;22123;52.412;20.970;2023-04-02T00:39:17;99772.00;;;6.18;100.00
36062;BME280;22123;52.412;20.970;2023-04-02T00:41:44;99777.84;;;6.14;100.00
36062;BME280;22123;52.412;20.970;2023-04-02T00:44:10;99747.50;;;5.97;100.00
36062;BME280;22123;52.412;20.970;2023-04-02T00:46:42;99746.63;;;5.88;100.00
36062;BME280;22123;52.412;20.970;2023-04-02T00:51:50;99766.84;;;5.90;100.00
36062;BME280;22123;52.412;20.970;2023-04-02T00:54:19;99766.19;;;5.97;100.00
36062;BME280;22123;52.412;20.970;2023-04-02T00:56:50;99781.28;;;5.98;100.00
36062;BME280;22123;52.412;20.970;2023-04-02T00:59:25;99790.81;;;6.00;100.00
36062;BME280;22123;52.412;20.970;2023-04-02T01:04:40;99792.66;;;6.00;100.00
36062;BME280;22123;52.412;20.970;2023-04-02T01:07:07;99799.81;;;5.99;100.00
36062;BME280;22123;52.412;20.970;2023-04-02T01:09:48;99758.25;;;5.79;100.00
36062;BME280;22123;52.412;20.970;2023-04-02T01:12:31;99680.00;;;5.26;100.00
36062;BME280;22123;52.412;20.970;2023-04-02T01:17:48;99760.56;;;5.73;100.00
36062;BME280;22123;52.412;20.970;2023-04-02T01:23:25;99769.44;;;5.74;100.00
36062;BME280;22123;52.412;20.970;2023-04-02T01:26:07;99786.84;;;5.86;100.00
36062;BME280;22123;52.412;20.970;2023-04-02T01:31:11;99789.81;;;5.75;100.00
36062;BME280;22123;52.412;20.970;2023-04-02T01:33:40;99732.00;;;5.39;100.00
36062;BME280;22123;52.412;20.970;2023-04-02T01:36:13;99793.09;;;5.69;100.00
36062;BME280;22123;52.412;20.970;2023-04-02T01:42:06;99820.91;;;5.84;100.00
36062;BME280;22123;52.412;20.970;2023-04-02T01:44:44;99795.25;;;5.65;100.00
36062;BME280;22123;52.412;20.970;2023-04-02T01:47:13;99824.56;;;5.83;100.00
36062;BME280;22123;52.412;20.970;2023-04-02T01:49:43;99814.13;;;5.72;100.00
36062;BME280;22123;52.412;20.970;2023-04-02T01:52:17;99827.88;;;5.77;100.00
36062;BME280;22123;52.412;20.970;2023-04-02T01:54:45;99837.59;;;5.86;100.00
36062;BME280;22123;52.412;20.970;2023-04-02T01:57:12;99838.47;;;5.87;100.00
36062;BME280;22123;52.412;20.970;2023-04-02T01:59:38;99811.94;;;5.67;100.00
36062;BME280;22123;52.412;20.970;2023-04-02T02:02:07;99849.16;;;5.87;100.00
36062;BME280;22123;52.412;20.970;2023-04-02T02:04:35;99795.34;;;5.55;100.00
36062;BME280;22123;52.412;20.970;2023-04-02T02:07:02;99817.97;;;5.69;100.00
36062;BME280;22123;52.412;20.970;2023-04-02T02:09:34;99834.59;;;5.81;100.00
36062;BME280;22123;52.412;20.970;2023-04-02T02:12:01;99811.44;;;5.64;100.00
36062;BME280;22123;52.412;20.970;2023-04-02T02:14:29;99852.66;;;5.87;100.00
36062;BME280;22123;52.412;20.970;2023-04-02T02:16:58;99848.28;;;5.86;100.00
36062;BME280;22123;52.412;20.970;2023-04-02T02:19:32;99827.66;;;5.70;100.00
36062;BME280;22123;52.412;20.970;2023-04-02T02:24:46;99821.78;;;5.67;100.00
36062;BME280;22123;52.412;20.970;2023-04-02T02:29:54;99826.59;;;5.63;100.00
36062;BME280;22123;52.412;20.970;2023-04-02T02:32:24;99818.00;;;5.51;100.00
36062;BME280;22123;52.412;20.970;2023-04-02T02:35:09;99816.69;;;5.55;100.00
36062;BME280;22123;52.412;20.970;2023-04-02T02:37:40;99838.50;;;5.69;100.00
36062;BME280;22123;52.412;20.970;2023-04-02T02:40:19;99836.84;;;5.68;100.00
36062;BME280;22123;52.412;20.970;2023-04-02T02:42:52;99868.84;;;5.86;100.00
36062;BME280;22123;52.412;20.970;2023-04-02T02:45:24;99835.09;;;5.58;100.00
36062;BME280;22123;52.412;20.970;2023-04-02T02:47:52;99857.88;;;5.71;100.00
36062;BME280;22123;52.412;20.970;2023-04-02T02:50:22;99863.91;;;5.73;100.00
36062;BME280;22123;52.412;20.970;2023-04-02T02:52:52;99874.25;;;5.76;100.00
36062;BME280;22123;52.412;20.970;2023-04-02T02:55:23;99844.94;;;5.58;100.00
36062;BME280;22123;52.412;20.970;2023-04-02T02:58:00;99848.06;;;5.53;100.00
36062;BME280;22123;52.412;20.970;2023-04-02T03:00:34;99840.97;;;5.44;100.00
36062;BME280;22123;52.412;20.970;2023-04-02T03:03:04;99838.25;;;5.36;100.00
36062;BME280;22123;52.412;20.970;2023-04-02T03:05:32;99849.06;;;5.34;100.00
36062;BME280;22123;52.412;20.970;2023-04-02T03:07:59;99895.19;;;5.63;100.00
36062;BME280;22123;52.412;20.970;2023-04-02T03:10:43;99880.41;;;5.50;100.00
36062;BME280;22123;52.412;20.970;2023-04-02T03:13:29;99898.84;;;5.62;100.00
36062;BME280;22123;52.412;20.970;2023-04-02T03:23:53;99919.94;;;5.47;100.00
36062;BME280;22123;52.412;20.970;2023-04-02T03:29:01;99917.63;;;5.34;100.00
36062;BME280;22123;52.412;20.970;2023-04-02T03:31:39;99898.50;;;5.20;100.00
36062;BME280;22123;52.412;20.970;2023-04-02T03:34:13;99931.06;;;5.42;100.00
36062;BME280;22123;52.412;20.970;2023-04-02T03:36:47;99935.53;;;5.42;100.00
36062;BME280;22123;52.412;20.970;2023-04-02T03:42:20;99930.66;;;5.37;100.00
36062;BME280;22123;52.412;20.970;2023-04-02T03:44:54;99950.22;;;5.37;100.00
36062;BME280;22123;52.412;20.970;2023-04-02T03:50:04;99933.78;;;5.32;100.00
36062;BME280;22123;52.412;20.970;2023-04-02T03:52:33;99906.84;;;5.08;100.00
36062;BME280;22123;52.412;20.970;2023-04-02T03:55:01;99907.69;;;5.08;100.00
36062;BME280;22123;52.412;20.970;2023-04-02T03:57:40;99963.72;;;5.36;100.00
36062;BME280;22123;52.412;20.970;2023-04-02T04:00:17;99935.69;;;5.04;100.00
36062;BME280;22123;52.412;20.970;2023-04-02T04:02:48;99969.25;;;5.25;100.00
36062;BME280;22123;52.412;20.970;2023-04-02T04:07:50;99953.75;;;5.10;100.00
36062;BME280;22123;52.412;20.970;2023-04-02T04:10:21;99946.47;;;5.02;100.00
36062;BME280;22123;52.412;20.970;2023-04-02T04:12:50;99959.13;;;5.00;100.00
36062;BME280;22123;52.412;20.970;2023-04-02T04:15:29;99922.88;;;4.80;100.00
36062;BME280;22123;52.412;20.970;2023-04-02T04:21:00;99997.97;;;5.13;100.00
36062;BME280;22123;52.412;20.970;2023-04-02T04:23:39;99962.69;;;4.91;100.00
36062;BME280;22123;52.412;20.970;2023-04-02T04:33:41;100018.31;;;5.14;100.00
36062;BME280;22123;52.412;20.970;2023-04-02T04:36:27;100024.78;;;5.11;100.00
36062;BME280;22123;52.412;20.970;2023-04-02T04:38:58;100027.19;;;5.14;100.00
36062;BME280;22123;52.412;20.970;2023-04-02T04:41:29;99984.47;;;4.86;100.00
36062;BME280;22123;52.412;20.970;2023-04-02T04:44:26;100025.09;;;5.08;100.00
36062;BME280;22123;52.412;20.970;2023-04-02T04:46:59;100034.41;;;5.04;100.00
36062;BME280;22123;52.412;20.970;2023-04-02T04:49:50;100051.38;;;5.03;100.00
36062;BME280;22123;52.412;20.970;2023-04-02T04:52:21;100028.16;;;4.85;100.00
36062;BME280;22123;52.412;20.970;2023-04-02T04:54:48;100022.97;;;4.74;100.00
36062;BME280;22123;52.412;20.970;2023-04-02T04:57:34;100059.41;;;4.93;100.00
36062;BME280;22123;52.412;20.970;2023-04-02T05:00:16;100060.38;;;4.92;100.00
36062;BME280;22123;52.412;20.970;2023-04-02T05:05:32;100022.19;;;4.54;100.00
36062;BME280;22123;52.412;20.970;2023-04-02T05:08:24;100073.50;;;4.85;100.00
36062;BME280;22123;52.412;20.970;2023-04-02T05:10:57;100034.25;;;4.58;100.00
36062;BME280;22123;52.412;20.970;2023-04-02T05:13:37;100031.16;;;4.53;100.00
36062;BME280;22123;52.412;20.970;2023-04-02T05:16:12;100015.22;;;4.43;100.00
36062;BME280;22123;52.412;20.970;2023-04-02T05:18:51;100064.25;;;4.70;100.00
36062;BME280;22123;52.412;20.970;2023-04-02T05:21:37;100055.72;;;4.66;100.00
36062;BME280;22123;52.412;20.970;2023-04-02T05:24:26;100080.78;;;4.83;100.00
36062;BME280;22123;52.412;20.970;2023-04-02T05:26:59;100015.75;;;4.37;100.00
36062;BME280;22123;52.412;20.970;2023-04-02T05:29:31;100056.16;;;4.52;100.00
36062;BME280;22123;52.412;20.970;2023-04-02T05:32:04;100062.88;;;4.56;100.00
36062;BME280;22123;52.412;20.970;2023-04-02T05:34:34;100074.78;;;4.62;100.00
36062;BME280;22123;52.412;20.970;2023-04-02T05:37:02;100071.56;;;4.68;100.00
36062;BME280;22123;52.412;20.970;2023-04-02T05:39:29;100043.94;;;4.59;100.00
36062;BME280;22123;52.412;20.970;2023-04-02T05:42:06;100111.66;;;4.86;100.00
36062;BME280;22123;52.412;20.970;2023-04-02T05:44:47;100066.81;;;4.52;100.00
36062;BME280;22123;52.412;20.970;2023-04-02T05:47:24;100121.66;;;4.84;100.00
36062;BME280;22123;52.412;20.970;2023-04-02T05:50:18;100136.78;;;4.93;100.00
36062;BME280;22123;52.412;20.970;2023-04-02T05:53:01;100134.25;;;4.92;100.00
36062;BME280;22123;52.412;20.970;2023-04-02T05:55:34;100124.84;;;4.87;100.00
36062;BME280;22123;52.412;20.970;2023-04-02T05:58:05;100133.97;;;4.85;100.00
36062;BME280;22123;52.412;20.970;2023-04-02T06:03:05;100116.84;;;4.78;100.00
36062;BME280;22123;52.412;20.970;2023-04-02T06:05:41;100141.44;;;4.81;100.00
36062;BME280;22123;52.412;20.970;2023-04-02T06:08:20;100123.06;;;4.68;100.00
36062;BME280;22123;52.412;20.970;2023-04-02T06:10:49;100152.38;;;4.78;100.00
36062;BME280;22123;52.412;20.970;2023-04-02T06:13:17;100136.69;;;4.56;100.00
36062;BME280;22123;52.412;20.970;2023-04-02T06:15:44;100112.28;;;4.41;100.00
36062;BME280;22123;52.412;20.970;2023-04-02T06:18:14;100167.28;;;4.71;100.00
36062;BME280;22123;52.412;20.970;2023-04-02T06:20:40;100121.41;;;4.38;100.00
36062;BME280;22123;52.412;20.970;2023-04-02T06:25:50;100180.47;;;4.63;100.00
36062;BME280;22123;52.412;20.970;2023-04-02T06:28:21;100173.19;;;4.55;100.00
36062;BME280;22123;52.412;20.970;2023-04-02T06:30:52;100154.06;;;4.40;100.00
36062;BME280;22123;52.412;20.970;2023-04-02T06:33:19;100192.25;;;4.60;100.00
36062;BME280;22123;52.412;20.970;2023-04-02T06:35:45;100154.47;;;4.26;100.00
36062;BME280;22123;52.412;20.970;2023-04-02T06:38:17;100161.66;;;4.25;100.00
36062;BME280;22123;52.412;20.970;2023-04-02T06:40:55;100204.88;;;4.48;100.00
36062;BME280;22123;52.412;20.970;2023-04-02T06:43:38;100187.06;;;4.39;100.00
36062;BME280;22123;52.412;20.970;2023-04-02T06:46:14;100173.03;;;4.27;100.00
36062;BME280;22123;52.412;20.970;2023-04-02T06:48:43;100172.31;;;4.35;100.00
36062;BME280;22123;52.412;20.970;2023-04-02T06:51:13;100195.88;;;4.40;100.00
36062;BME280;22123;52.412;20.970;2023-04-02T06:53:43;100215.41;;;4.60;100.00
36062;BME280;22123;52.412;20.970;2023-04-02T06:59:03;100218.06;;;4.60;100.00
36062;BME280;22123;52.412;20.970;2023-04-02T07:01:34;100158.28;;;4.23;100.00
36062;BME280;22123;52.412;20.970;2023-04-02T07:04:00;100222.13;;;4.54;100.00
36062;BME280;22123;52.412;20.970;2023-04-02T07:06:26;100194.75;;;4.32;100.00
36062;BME280;22123;52.412;20.970;2023-04-02T07:08:52;100209.66;;;4.45;100.00
36062;BME280;22123;52.412;20.970;2023-04-02T07:11:20;100228.31;;;4.55;100.00
36062;BME280;22123;52.412;20.970;2023-04-02T07:13:47;100213.16;;;4.45;100.00
36062;BME280;22123;52.412;20.970;2023-04-02T07:16:16;100198.66;;;4.28;100.00
36062;BME280;22123;52.412;20.970;2023-04-02T07:18:42;100240.66;;;4.56;100.00
36062;BME280;22123;52.412;20.970;2023-04-02T07:21:08;100251.31;;;4.56;100.00
36062;BME280;22123;52.412;20.970;2023-04-02T07:23:35;100236.84;;;4.48;100.00
36062;BME280;22123;52.412;20.970;2023-04-02T07:26:00;100227.19;;;4.38;100.00
36062;BME280;22123;52.412;20.970;2023-04-02T07:28:27;100222.66;;;4.28;100.00
36062;BME280;22123;52.412;20.970;2023-04-02T07:30:53;100218.44;;;4.26;100.00
36062;BME280;22123;52.412;20.970;2023-04-02T07:33:22;100238.94;;;4.35;100.00
36062;BME280;22123;52.412;20.970;2023-04-02T07:35:49;100256.78;;;4.44;100.00
36062;BME280;22123;52.412;20.970;2023-04-02T07:38:15;100225.59;;;4.25;100.00
36062;BME280;22123;52.412;20.970;2023-04-02T07:40:41;100243.72;;;4.41;100.00
36062;BME280;22123;52.412;20.970;2023-04-02T07:43:07;100261.72;;;4.59;100.00
36062;BME280;22123;52.412;20.970;2023-04-02T07:45:33;100270.97;;;4.64;100.00
36062;BME280;22123;52.412;20.970;2023-04-02T07:48:07;100274.63;;;4.63;100.00
36062;BME280;22123;52.412;20.970;2023-04-02T07:50:33;100261.56;;;4.60;100.00
36062;BME280;22123;52.412;20.970;2023-04-02T07:53:00;100229.56;;;4.41;100.00
36062;BME280;22123;52.412;20.970;2023-04-02T07:55:25;100262.00;;;4.56;100.00
36062;BME280;22123;52.412;20.970;2023-04-02T07:57:53;100274.38;;;4.66;100.00
36062;BME280;22123;52.412;20.970;2023-04-02T08:00:20;100277.44;;;4.72;100.00
36062;BME280;22123;52.412;20.970;2023-04-02T08:02:47;100281.66;;;4.74;100.00
36062;BME280;22123;52.412;20.970;2023-04-02T08:05:13;100275.34;;;4.75;100.00
36062;BME280;22123;52.412;20.970;2023-04-02T08:07:39;100297.41;;;4.97;100.00
36062;BME280;22123;52.412;20.970;2023-04-02T08:10:05;100268.63;;;4.71;100.00
36062;BME280;22123;52.412;20.970;2023-04-02T08:12:31;100264.09;;;4.72;100.00
36062;BME280;22123;52.412;20.970;2023-04-02T08:14:57;100269.19;;;4.84;100.00
36062;BME280;22123;52.412;20.970;2023-04-02T08:17:23;100299.66;;;5.01;100.00
36062;BME280;22123;52.412;20.970;2023-04-02T08:19:49;100224.81;;;4.54;100.00
36062;BME280;22123;52.412;20.970;2023-04-02T08:22:15;100292.34;;;4.84;100.00
36062;BME280;22123;52.412;20.970;2023-04-02T08:24:41;100302.03;;;4.95;100.00
36062;BME280;22123;52.412;20.970;2023-04-02T08:27:09;100302.59;;;4.88;100.00
36062;BME280;22123;52.412;20.970;2023-04-02T08:29:36;100302.00;;;4.85;100.00
36062;BME280;22123;52.412;20.970;2023-04-02T08:32:02;100295.31;;;4.81;100.00
36062;BME280;22123;52.412;20.970;2023-04-02T08:34:28;100321.28;;;4.98;100.00
36062;BME280;22123;52.412;20.970;2023-04-02T08:36:56;100291.19;;;4.86;100.00
36062;BME280;22123;52.412;20.970;2023-04-02T08:39:23;100308.50;;;5.02;100.00
36062;BME280;22123;52.412;20.970;2023-04-02T08:45:04;100336.75;;;5.14;100.00
36062;BME280;22123;52.412;20.970;2023-04-02T08:47:35;100301.63;;;4.90;100.00
36062;BME280;22123;52.412;20.970;2023-04-02T08:50:25;100361.28;;;5.08;100.00
36062;BME280;22123;52.412;20.970;2023-04-02T08:52:53;100360.47;;;5.08;100.00
36062;BME280;22123;52.412;20.970;2023-04-02T08:55:55;100331.94;;;4.88;100.00
36062;BME280;22123;52.412;20.970;2023-04-02T09:00:53;100368.47;;;5.17;100.00
36062;BME280;22123;52.412;20.970;2023-04-02T09:03:33;100332.66;;;5.00;100.00
36062;BME280;22123;52.412;20.970;2023-04-02T09:06:01;100373.09;;;5.25;100.00
36062;BME280;22123;52.412;20.970;2023-04-02T09:08:30;100359.47;;;5.18;100.00
36062;BME280;22123;52.412;20.970;2023-04-02T09:13:42;100337.97;;;5.00;100.00
36062;BME280;22123;52.412;20.970;2023-04-02T09:16:11;100391.38;;;5.20;100.00
36062;BME280;22123;52.412;20.970;2023-04-02T09:18:38;100363.38;;;4.95;100.00
36062;BME280;22123;52.412;20.970;2023-04-02T09:21:36;100354.69;;;4.93;100.00
36062;BME280;22123;52.412;20.970;2023-04-02T09:24:07;100383.47;;;4.99;100.00
36062;BME280;22123;52.412;20.970;2023-04-02T09:26:33;100384.16;;;5.01;100.00
36062;BME280;22123;52.412;20.970;2023-04-02T09:29:30;100403.72;;;5.11;100.00
36062;BME280;22123;52.412;20.970;2023-04-02T09:35:10;100406.41;;;5.21;100.00
36062;BME280;22123;52.412;20.970;2023-04-02T09:37:36;100371.56;;;5.13;100.00
36062;BME280;22123;52.412;20.970;2023-04-02T09:40:26;100353.72;;;5.03;100.00
36062;BME280;22123;52.412;20.970;2023-04-02T09:43:07;100393.63;;;5.25;100.00
36062;BME280;22123;52.412;20.970;2023-04-02T09:45:34;100398.25;;;5.32;100.00
36062;BME280;22123;52.412;20.970;2023-04-02T09:48:00;100402.78;;;5.32;100.00
36062;BME280;22123;52.412;20.970;2023-04-02T09:50:30;100415.13;;;5.43;100.00
36062;BME280;22123;52.412;20.970;2023-04-02T09:52:56;100410.34;;;5.36;100.00
36062;BME280;22123;52.412;20.970;2023-04-02T09:55:27;100378.31;;;5.27;100.00
36062;BME280;22123;52.412;20.970;2023-04-02T09:58:19;100416.09;;;5.51;100.00
36062;BME280;22123;52.412;20.970;2023-04-02T10:00:49;100418.66;;;5.43;100.00
36062;BME280;22123;52.412;20.970;2023-04-02T10:03:27;100385.19;;;5.19;100.00
36062;BME280;22123;52.412;20.970;2023-04-02T10:06:12;100397.13;;;5.25;100.00
36062;BME280;22123;52.412;20.970;2023-04-02T10:08:41;100414.69;;;5.28;100.00
36062;BME280;22123;52.412;20.970;2023-04-02T10:11:12;100319.69;;;4.66;100.00
36062;BME280;22123;52.412;20.970;2023-04-02T10:16:12;100436.19;;;5.16;100.00
36062;BME280;22123;52.412;20.970;2023-04-02T10:18:47;100442.22;;;5.09;100.00
36062;BME280;22123;52.412;20.970;2023-04-02T10:21:20;100451.16;;;4.98;100.00
36062;BME280;22123;52.412;20.970;2023-04-02T10:23:47;100433.38;;;4.67;100.00
36062;BME280;22123;52.412;20.970;2023-04-02T10:29:00;100448.81;;;4.64;100.00
36062;BME280;22123;52.412;20.970;2023-04-02T10:31:36;100471.03;;;4.74;100.00
36062;BME280;22123;52.412;20.970;2023-04-02T10:34:11;100443.97;;;4.48;100.00
36062;BME280;22123;52.412;20.970;2023-04-02T10:36:53;100478.84;;;4.66;100.00
36062;BME280;22123;52.412;20.970;2023-04-02T10:47:27;100444.88;;;4.37;100.00
36062;BME280;22123;52.412;20.970;2023-04-02T10:52:50;100481.22;;;4.59;100.00
36062;BME280;22123;52.412;20.970;2023-04-02T10:55:28;100452.59;;;4.40;100.00
36062;BME280;22123;52.412;20.970;2023-04-02T10:57:58;100495.50;;;4.58;100.00
36062;BME280;22123;52.412;20.970;2023-04-02T11:00:30;100464.97;;;4.41;100.00
36062;BME280;22123;52.412;20.970;2023-04-02T11:03:05;100511.16;;;4.73;100.00
36062;BME280;22123;52.412;20.970;2023-04-02T11:05:45;100483.88;;;4.59;100.00
36062;BME280;22123;52.412;20.970;2023-04-02T11:10:57;100501.03;;;4.66;100.00
36062;BME280;22123;52.412;20.970;2023-04-02T11:16:00;100504.59;;;4.86;100.00
36062;BME280;22123;52.412;20.970;2023-04-02T11:18:29;100493.91;;;4.77;100.00
36062;BME280;22123;52.412;20.970;2023-04-02T11:20:58;100518.81;;;4.87;100.00
36062;BME280;22123;52.412;20.970;2023-04-02T11:23:35;100518.75;;;4.77;100.00
36062;BME280;22123;52.412;20.970;2023-04-02T11:26:33;100556.44;;;4.94;100.00
36062;BME280;22123;52.412;20.970;2023-04-02T11:29:04;100556.72;;;4.91;100.00
36062;BME280;22123;52.412;20.970;2023-04-02T11:31:32;100518.28;;;4.62;100.00
36062;BME280;22123;52.412;20.970;2023-04-02T11:33:58;100553.28;;;4.79;100.00
36062;BME280;22123;52.412;20.970;2023-04-02T11:39:53;100545.69;;;4.74;100.00
36062;BME280;22123;52.412;20.970;2023-04-02T11:42:25;100560.47;;;4.78;100.00
36062;BME280;22123;52.412;20.970;2023-04-02T11:44:55;100558.72;;;4.67;100.00
36062;BME280;22123;52.412;20.970;2023-04-02T11:47:25;100489.00;;;4.20;100.00
36062;BME280;22123;52.412;20.970;2023-04-02T11:52:27;100568.81;;;4.64;100.00
36062;BME280;22123;52.412;20.970;2023-04-02T12:00:48;100544.44;;;4.26;100.00
36062;BME280;22123;52.412;20.970;2023-04-02T12:11:41;100557.75;;;4.47;100.00
36062;BME280;22123;52.412;20.970;2023-04-02T12:14:46;100598.78;;;4.77;100.00
36062;BME280;22123;52.412;20.970;2023-04-02T12:17:27;100607.25;;;4.82;100.00
36062;BME280;22123;52.412;20.970;2023-04-02T12:19:59;100586.38;;;4.66;100.00
36062;BME280;22123;52.412;20.970;2023-04-02T12:22:30;100599.19;;;4.73;100.00
36062;BME280;22123;52.412;20.970;2023-04-02T12:25:15;100607.25;;;4.82;100.00
36062;BME280;22123;52.412;20.970;2023-04-02T12:27:44;100612.81;;;4.79;100.00
36062;BME280;22123;52.412;20.970;2023-04-02T12:30:20;100599.72;;;4.66;100.00
36062;BME280;22123;52.412;20.970;2023-04-02T12:32:47;100621.34;;;4.73;100.00
36062;BME280;22123;52.412;20.970;2023-04-02T12:35:30;100623.44;;;4.69;100.00
36062;BME280;22123;52.412;20.970;2023-04-02T12:37:57;100632.06;;;4.62;100.00
36062;BME280;22123;52.412;20.970;2023-04-02T12:40:24;100626.31;;;4.57;100.00
36062;BME280;22123;52.412;20.970;2023-04-02T12:42:50;100636.84;;;4.58;100.00
36062;BME280;22123;52.412;20.970;2023-04-02T12:45:27;100582.56;;;4.27;100.00
36062;BME280;22123;52.412;20.970;2023-04-02T12:47:56;100573.13;;;4.23;100.00
36062;BME280;22123;52.412;20.970;2023-04-02T12:50:22;100616.16;;;4.50;100.00
36062;BME280;22123;52.412;20.970;2023-04-02T12:52:50;100639.72;;;4.66;100.00
36062;BME280;22123;52.412;20.970;2023-04-02T12:55:19;100598.25;;;4.41;100.00
36062;BME280;22123;52.412;20.970;2023-04-02T12:57:46;100605.72;;;4.47;100.00
36062;BME280;22123;52.412;20.970;2023-04-02T13:03:21;100655.25;;;4.82;100.00
36062;BME280;22123;52.412;20.970;2023-04-02T13:05:51;100621.88;;;4.67;100.00
36062;BME280;22123;52.412;20.970;2023-04-02T13:10:52;100646.22;;;4.74;100.00
36062;BME280;22123;52.412;20.970;2023-04-02T13:13:23;100641.97;;;4.71;100.00
36062;BME280;22123;52.412;20.970;2023-04-02T13:18:36;100644.66;;;4.71;100.00
36062;BME280;22123;52.412;20.970;2023-04-02T13:21:05;100608.16;;;4.50;100.00
36062;BME280;22123;52.412;20.970;2023-04-02T13:23:35;100678.59;;;4.90;100.00
36062;BME280;22123;52.412;20.970;2023-04-02T13:26:22;100667.09;;;4.68;100.00
36062;BME280;22123;52.412;20.970;2023-04-02T13:29:13;100693.69;;;4.80;100.00
36062;BME280;22123;52.412;20.970;2023-04-02T13:31:42;100654.75;;;4.56;100.00
36062;BME280;22123;52.412;20.970;2023-04-02T13:34:08;100645.22;;;4.53;100.00
36062;BME280;22123;52.412;20.970;2023-04-02T13:36:33;100659.47;;;4.64;100.00
36062;BME280;22123;52.412;20.970;2023-04-02T13:38:59;100677.88;;;4.67;100.00
36062;BME280;22123;52.412;20.970;2023-04-02T13:41:27;100701.09;;;4.76;100.00
36062;BME280;22123;52.412;20.970;2023-04-02T13:43:56;100679.16;;;4.51;100.00
36062;BME280;22123;52.412;20.970;2023-04-02T13:46:26;100713.56;;;4.55;100.00
36062;BME280;22123;52.412;20.970;2023-04-02T13:48:53;100705.81;;;4.51;100.00
36062;BME280;22123;52.412;20.970;2023-04-02T13:51:22;100719.00;;;4.53;100.00
36062;BME280;22123;52.412;20.970;2023-04-02T13:53:54;100694.59;;;4.37;100.00
36062;BME280;22123;52.412;20.970;2023-04-02T13:56:21;100592.84;;;3.67;100.00
36062;BME280;22123;52.412;20.970;2023-04-02T13:58:47;100721.25;;;4.37;100.00
36062;BME280;22123;52.412;20.970;2023-04-02T14:01:14;100685.56;;;4.16;100.00
36062;BME280;22123;52.412;20.970;2023-04-02T14:03:40;100679.06;;;4.09;100.00
36062;BME280;22123;52.412;20.970;2023-04-02T14:06:13;100707.13;;;4.25;100.00
36062;BME280;22123;52.412;20.970;2023-04-02T14:25:34;100744.84;;;4.09;100.00
36062;BME280;22123;52.412;20.970;2023-04-02T14:42:10;100717.34;;;3.52;100.00
36062;BME280;22123;52.412;20.970;2023-04-02T14:44:42;100725.84;;;3.57;100.00
36062;BME280;22123;52.412;20.970;2023-04-02T14:47:16;100749.06;;;3.66;100.00
36062;BME280;22123;52.412;20.970;2023-04-02T14:49:45;100759.72;;;3.66;100.00
36062;BME280;22123;52.412;20.970;2023-04-02T14:52:16;100784.41;;;3.79;100.00
36062;BME280;22123;52.412;20.970;2023-04-02T14:54:59;100720.50;;;3.34;100.00
36062;BME280;22123;52.412;20.970;2023-04-02T14:57:30;100757.91;;;3.55;100.00
36062;BME280;22123;52.412;20.970;2023-04-02T14:59:59;100785.91;;;3.72;100.00
36062;BME280;22123;52.412;20.970;2023-04-02T15:05:03;100793.75;;;3.62;100.00
36062;BME280;22123;52.412;20.970;2023-04-02T15:07:36;100794.69;;;3.61;100.00
36062;BME280;22123;52.412;20.970;2023-04-02T15:10:09;100762.59;;;3.40;100.00
36062;BME280;22123;52.412;20.970;2023-04-02T15:12:39;100760.06;;;3.27;100.00
36062;BME280;22123;52.412;20.970;2023-04-02T15:17:53;100781.34;;;3.27;100.00
36062;BME280;22123;52.412;20.970;2023-04-02T15:20:18;100783.75;;;3.30;100.00
36062;BME280;22123;52.412;20.970;2023-04-02T15:22:58;100820.47;;;3.50;100.00
36062;BME280;22123;52.412;20.970;2023-04-02T15:25:38;100800.44;;;3.33;100.00
36062;BME280;22123;52.412;20.970;2023-04-02T15:28:23;100824.81;;;3.51;100.00
36062;BME280;22123;52.412;20.970;2023-04-02T15:30:56;100829.41;;;3.48;100.00
36062;BME280;22123;52.412;20.970;2023-04-02T15:33:33;100795.09;;;3.21;100.00
36062;BME280;22123;52.412;20.970;2023-04-02T15:38:44;100778.31;;;2.96;100.00
36062;BME280;22123;52.412;20.970;2023-04-02T15:43:56;100794.28;;;2.96;100.00
36062;BME280;22123;52.412;20.970;2023-04-02T15:49:46;100827.09;;;3.08;100.00
36062;BME280;22123;52.412;20.970;2023-04-02T15:58:12;100856.88;;;3.13;100.00
36062;BME280;22123;52.412;20.970;2023-04-02T16:01:08;100848.84;;;3.02;100.00
36062;BME280;22123;52.412;20.970;2023-04-02T16:03:52;100864.22;;;3.10;100.00
36062;BME280;22123;52.412;20.970;2023-04-02T16:09:13;100873.06;;;3.10;100.00
36062;BME280;22123;52.412;20.970;2023-04-02T16:11:42;100875.72;;;3.10;100.00